Time;durP1;ratioP1;P1;durP2;ratioP2;P2;SDS_P1;SDS_P2;PMS_P1;PMS_P2;Temp;Humidity;BMP_temperature;BMP_pressure;BME280_temperature;BME280_humidity;BME280_pressure;Samples;Min_cycle;Max_cycle;Signal;HPM_P1;HPM_P2
2022/03/12 00:01:16;;;;;;;1.60;1.50;;;8.60;99.90;;;;;;4952961;28;20212;-90
2022/03/12 00:03:42;;;;;;;1.40;1.30;;;8.50;99.90;;;;;;4969317;28;20222;-90
2022/03/12 00:06:09;;;;;;;2.57;1.50;;;8.40;99.90;;;;;;5002088;28;20218;-91
2022/03/12 00:08:44;;;;;;;1.00;0.93;;;8.40;99.90;;;;;;4963458;28;20187;-90
2022/03/12 00:11:24;;;;;;;1.40;1.30;;;8.30;99.90;;;;;;4980353;28;20526;-90
2022/03/12 00:13:52;;;;;;;2.07;1.67;;;8.30;99.90;;;;;;4996406;28;20295;-91
2022/03/12 00:16:22;;;;;;;2.23;2.10;;;8.30;99.90;;;;;;4979894;28;20271;-92
2022/03/12 00:18:55;;;;;;;1.17;1.17;;;8.30;99.90;;;;;;4982077;28;20212;-92
2022/03/12 00:21:27;;;;;;;0.87;0.87;;;8.30;99.90;;;;;;4981332;28;20235;-91
2022/03/12 00:23:58;;;;;;;2.43;2.10;;;8.30;99.90;;;;;;4989582;28;20755;-91
2022/03/12 00:26:25;;;;;;;2.63;1.83;;;8.20;99.90;;;;;;4967617;28;20188;-91
2022/03/12 00:28:53;;;;;;;3.40;2.30;;;8.20;99.90;;;;;;4963896;28;20283;-91
2022/03/12 00:31:19;;;;;;;2.30;1.67;;;8.10;99.90;;;;;;4974129;28;20216;-90
2022/03/12 00:33:45;;;;;;;0.93;0.93;;;8.10;99.90;;;;;;4974495;28;20271;-90
2022/03/12 00:36:12;;;;;;;1.20;1.00;;;8.10;99.90;;;;;;4964632;28;20354;-91
2022/03/12 00:38:39;;;;;;;1.87;1.77;;;8.10;99.90;;;;;;4965071;28;20199;-91
2022/03/12 00:41:07;;;;;;;1.87;1.70;;;8.00;99.90;;;;;;4966163;28;20183;-91
2022/03/12 00:43:33;;;;;;;2.93;2.03;;;7.80;99.90;;;;;;4972405;28;20211;-90
2022/03/12 00:45:59;;;;;;;1.30;1.20;;;7.80;99.90;;;;;;4977180;28;20220;-91
2022/03/12 00:48:25;;;;;;;9.00;3.63;;;7.70;99.90;;;;;;4965840;28;20565;-91
2022/03/12 00:50:50;;;;;;;1.47;1.03;;;7.70;99.90;;;;;;4964924;28;20252;-91
2022/03/12 00:53:16;;;;;;;1.87;1.23;;;7.60;99.90;;;;;;4980874;28;20251;-90
2022/03/12 00:55:42;;;;;;;2.77;1.77;;;7.60;99.90;;;;;;4973386;28;20696;-91
2022/03/12 00:58:08;;;;;;;4.87;2.33;;;7.60;99.90;;;;;;4974950;28;20231;-91
2022/03/12 01:00:34;;;;;;;3.00;1.53;;;7.60;99.90;;;;;;4964022;28;20239;-90
2022/03/12 01:03:01;;;;;;;1.33;1.23;;;7.50;99.90;;;;;;4965697;28;20431;-91
2022/03/12 01:06:02;;;;;;;2.20;2.00;;;7.50;99.90;;;;;;4963729;28;20220;-90
2022/03/12 01:08:29;;;;;;;2.33;1.57;;;7.50;99.90;;;;;;4995444;28;20204;-90
2022/03/12 01:10:59;;;;;;;3.60;2.60;;;7.50;99.90;;;;;;4975118;28;20550;-91
2022/03/12 01:13:25;;;;;;;1.47;1.37;;;7.50;99.90;;;;;;4982746;28;20220;-91
2022/03/12 01:15:51;;;;;;;1.57;1.47;;;7.50;99.90;;;;;;4964516;28;20243;-91
2022/03/12 01:18:19;;;;;;;3.40;2.10;;;7.60;99.90;;;;;;4966065;28;20224;-90
2022/03/12 01:20:45;;;;;;;2.60;1.97;;;7.60;99.90;;;;;;4994253;28;20243;-91
2022/03/12 01:23:13;;;;;;;3.37;1.70;;;7.60;99.90;;;;;;4992234;28;20555;-89
2022/03/12 01:25:40;;;;;;;6.57;1.73;;;7.70;99.90;;;;;;4991187;28;20291;-91
2022/03/12 01:28:08;;;;;;;1.03;1.03;;;7.70;99.90;;;;;;4994107;28;20313;-90
2022/03/12 01:30:34;;;;;;;1.97;1.87;;;7.80;99.90;;;;;;4973762;28;20212;-92
2022/03/12 01:33:01;;;;;;;1.57;1.50;;;7.70;99.90;;;;;;4970334;28;20609;-90
2022/03/12 01:35:27;;;;;;;2.93;1.53;;;7.70;99.90;;;;;;4977610;28;20187;-91
2022/03/12 01:37:53;;;;;;;1.67;1.57;;;7.80;99.90;;;;;;4984428;28;20283;-90
2022/03/12 01:40:19;;;;;;;2.43;1.60;;;7.80;99.90;;;;;;4994667;28;20227;-90
2022/03/12 01:42:46;;;;;;;1.83;1.50;;;7.70;99.90;;;;;;4991985;28;20228;-91
2022/03/12 01:45:19;;;;;;;1.73;1.63;;;7.80;99.90;;;;;;4983702;28;20258;-90
2022/03/12 01:47:45;;;;;;;2.30;2.20;;;7.80;99.90;;;;;;4995006;28;20211;-90
2022/03/12 01:50:11;;;;;;;1.33;1.30;;;7.70;99.90;;;;;;4983652;28;20211;-91
2022/03/12 01:52:37;;;;;;;1.67;1.57;;;7.70;99.90;;;;;;4959986;28;20240;-90
2022/03/12 01:55:06;;;;;;;1.87;1.83;;;7.80;99.90;;;;;;4957578;28;20224;-91
2022/03/12 01:57:32;;;;;;;19.10;1.90;;;7.80;99.90;;;;;;4958004;28;20240;-90
2022/03/12 01:59:58;;;;;;;2.00;1.77;;;7.90;99.90;;;;;;4961545;28;20556;-90
2022/03/12 02:02:24;;;;;;;1.70;1.60;;;7.90;99.90;;;;;;4982320;28;20195;-91
2022/03/12 02:04:51;;;;;;;3.97;1.27;;;7.90;99.90;;;;;;4963286;28;20244;-90
2022/03/12 02:07:18;;;;;;;1.70;1.33;;;7.90;99.90;;;;;;4985874;28;20223;-91
2022/03/12 02:09:44;;;;;;;1.07;1.07;;;7.90;99.90;;;;;;4971886;28;20218;-90
2022/03/12 02:12:11;;;;;;;1.10;1.10;;;7.90;99.90;;;;;;4999540;28;20207;-91
2022/03/12 02:14:37;;;;;;;2.27;2.03;;;7.90;99.90;;;;;;4984078;28;20229;-90
2022/03/12 02:17:11;;;;;;;6.63;2.27;;;7.90;99.90;;;;;;4979469;28;20214;-92
2022/03/12 02:19:39;;;;;;;3.60;1.73;;;7.90;99.90;;;;;;4959537;28;20223;-90
2022/03/12 02:22:13;;;;;;;2.13;1.23;;;7.90;99.90;;;;;;4980452;28;20224;-90
2022/03/12 02:24:39;;;;;;;2.27;1.57;;;7.90;99.90;;;;;;4982421;28;20279;-91
2022/03/12 02:27:08;;;;;;;1.63;1.53;;;7.90;99.90;;;;;;4964360;28;20304;-90
2022/03/12 02:29:34;;;;;;;2.97;2.03;;;7.90;99.90;;;;;;4979233;28;20192;-90
2022/03/12 02:32:09;;;;;;;5.10;2.40;;;8.00;99.90;;;;;;4963626;28;20189;-91
2022/03/12 02:34:49;;;;;;;2.27;1.43;;;8.10;99.90;;;;;;4973657;28;20215;-91
2022/03/12 02:37:29;;;;;;;2.20;1.73;;;8.10;99.90;;;;;;4974398;28;20263;-89
2022/03/12 02:39:57;;;;;;;2.73;2.53;;;8.20;99.90;;;;;;4972696;28;20215;-91
2022/03/12 02:42:25;;;;;;;1.00;0.90;;;8.30;99.90;;;;;;4958213;28;20370;-91
2022/03/12 02:44:52;;;;;;;1.17;1.03;;;8.30;99.90;;;;;;4972480;28;20223;-90
2022/03/12 02:47:22;;;;;;;2.03;1.93;;;8.30;99.90;;;;;;4981316;28;20189;-90
2022/03/12 02:49:54;;;;;;;1.33;1.33;;;8.30;99.90;;;;;;4980155;28;20215;-90
2022/03/12 02:52:22;;;;;;;7.50;1.77;;;8.30;99.90;;;;;;4980891;28;20235;-90
2022/03/12 02:54:49;;;;;;;1.47;1.43;;;8.40;99.90;;;;;;4968118;28;20220;-90
2022/03/12 02:57:16;;;;;;;2.90;1.83;;;8.30;99.90;;;;;;4972948;28;20768;-91
2022/03/12 02:59:45;;;;;;;1.47;1.30;;;8.40;99.90;;;;;;4980806;28;20216;-92
2022/03/12 03:02:12;;;;;;;1.93;1.63;;;8.40;99.90;;;;;;4965651;28;20219;-91
2022/03/12 03:04:41;;;;;;;2.97;2.50;;;8.50;99.90;;;;;;4965826;28;20231;-89
2022/03/12 03:07:09;;;;;;;1.23;1.17;;;8.50;99.90;;;;;;4952925;28;20874;-92
2022/03/12 03:09:35;;;;;;;2.00;1.90;;;8.50;99.90;;;;;;4963472;28;20217;-92
2022/03/12 03:12:03;;;;;;;2.33;1.60;;;8.60;99.90;;;;;;4971010;28;20216;-91
2022/03/12 03:14:31;;;;;;;3.47;3.20;;;8.50;99.90;;;;;;4960904;28;20192;-91
2022/03/12 03:17:01;;;;;;;1.97;1.83;;;8.50;99.90;;;;;;4961910;28;20221;-90
2022/03/12 03:19:28;;;;;;;2.43;0.93;;;8.50;99.90;;;;;;4962165;28;20213;-91
2022/03/12 03:21:58;;;;;;;9.07;3.03;;;8.50;99.90;;;;;;4999945;28;20624;-92
2022/03/12 03:24:25;;;;;;;2.50;1.80;;;8.50;99.90;;;;;;4982959;28;20246;-91
2022/03/12 03:26:57;;;;;;;1.97;1.87;;;8.50;99.90;;;;;;4984672;28;21025;-91
2022/03/12 03:29:29;;;;;;;3.53;1.27;;;8.40;99.90;;;;;;4992464;28;20214;-92
2022/03/12 03:31:56;;;;;;;3.37;2.70;;;8.50;99.90;;;;;;4992627;28;20636;-91
2022/03/12 03:34:23;;;;;;;1.17;1.10;;;8.40;99.90;;;;;;4992199;28;20234;-91
2022/03/12 03:36:50;;;;;;;1.90;1.77;;;8.40;99.90;;;;;;4976064;28;20231;-92
2022/03/12 03:39:17;;;;;;;0.87;0.83;;;8.40;99.90;;;;;;4976344;28;20219;-92
2022/03/12 03:41:43;;;;;;;4.70;2.20;;;8.40;99.90;;;;;;4975904;28;20218;-91
2022/03/12 03:44:10;;;;;;;2.50;2.30;;;8.50;99.90;;;;;;4977504;28;20651;-92
2022/03/12 03:46:36;;;;;;;3.23;1.70;;;8.50;99.90;;;;;;4983450;28;20207;-91
2022/03/12 03:49:04;;;;;;;3.10;2.50;;;8.40;99.90;;;;;;4979767;28;21397;-90
2022/03/12 03:51:30;;;;;;;2.63;1.77;;;8.50;99.90;;;;;;4992102;28;20550;-92
2022/03/12 03:53:56;;;;;;;6.87;2.23;;;8.50;99.90;;;;;;4948939;28;20223;-91
2022/03/12 03:56:22;;;;;;;2.77;2.30;;;8.50;99.90;;;;;;4985576;28;20203;-91
2022/03/12 03:58:48;;;;;;;3.50;1.53;;;8.60;99.90;;;;;;4989282;28;20188;-91
2022/03/12 04:01:17;;;;;;;3.43;2.43;;;8.60;99.90;;;;;;4987542;28;20226;-90
2022/03/12 04:03:51;;;;;;;1.80;1.70;;;8.50;99.90;;;;;;4997404;28;20228;-89
2022/03/12 04:06:20;;;;;;;2.47;2.00;;;8.60;99.90;;;;;;4991496;28;20221;-91
2022/03/12 04:08:47;;;;;;;5.80;2.27;;;8.60;99.90;;;;;;4997895;28;21629;-90
2022/03/12 04:11:18;;;;;;;2.23;1.90;;;8.50;99.90;;;;;;4977195;28;20187;-90
2022/03/12 04:13:46;;;;;;;3.00;2.80;;;8.50;99.90;;;;;;4975317;28;20238;-90
2022/03/12 04:16:13;;;;;;;1.87;1.77;;;8.40;99.90;;;;;;4976279;28;20226;-90
2022/03/12 04:18:41;;;;;;;3.80;3.40;;;8.20;99.90;;;;;;4969606;28;20222;-90
2022/03/12 04:21:08;;;;;;;3.90;2.77;;;8.00;99.90;;;;;;4974927;28;20223;-91
2022/03/12 04:23:34;;;;;;;5.30;2.43;;;7.90;99.90;;;;;;4959157;28;20283;-90
2022/03/12 04:26:00;;;;;;;2.90;1.67;;;7.80;99.90;;;;;;4952903;28;21012;-92
2022/03/12 04:28:32;;;;;;;1.37;1.10;;;7.70;99.90;;;;;;4968645;28;20776;-91
2022/03/12 04:31:03;;;;;;;2.00;1.80;;;7.50;99.90;;;;;;4969252;28;20803;-90
2022/03/12 04:33:29;;;;;;;2.80;2.60;;;7.40;99.90;;;;;;4986183;28;20233;-90
2022/03/12 04:35:56;;;;;;;3.70;2.90;;;7.30;99.90;;;;;;4949985;28;20225;-91
2022/03/12 04:38:23;;;;;;;1.30;1.20;;;7.10;99.90;;;;;;4982099;28;20192;-90
2022/03/12 04:40:49;;;;;;;1.63;1.53;;;7.10;99.90;;;;;;4970817;28;20250;-90
2022/03/12 04:43:15;;;;;;;2.70;1.90;;;7.10;99.90;;;;;;4950390;28;20228;-91
2022/03/12 04:45:46;;;;;;;1.03;1.03;;;7.10;99.90;;;;;;4967859;28;20226;-90
2022/03/12 04:48:17;;;;;;;2.37;1.90;;;7.10;99.90;;;;;;4965365;28;20212;-90
2022/03/12 04:50:43;;;;;;;1.33;1.23;;;7.10;99.90;;;;;;4996349;28;20584;-90
2022/03/12 04:53:09;;;;;;;1.90;1.73;;;7.10;99.90;;;;;;4982510;28;20716;-90
2022/03/12 04:55:36;;;;;;;2.17;1.97;;;7.00;99.90;;;;;;4965458;28;20216;-90
2022/03/12 04:58:07;;;;;;;3.80;2.47;;;7.00;99.90;;;;;;4980796;28;20212;-91
2022/03/12 05:00:38;;;;;;;2.10;1.90;;;6.90;99.90;;;;;;4968672;28;20223;-90
2022/03/12 05:03:10;;;;;;;2.70;2.50;;;6.90;99.90;;;;;;4981181;28;20216;-90
2022/03/12 05:05:39;;;;;;;2.70;1.93;;;6.90;99.90;;;;;;4974296;28;20184;-90
2022/03/12 05:08:25;;;;;;;5.13;2.77;;;6.90;99.90;;;;;;4975263;28;20242;-90
2022/03/12 05:10:53;;;;;;;3.50;3.20;;;7.00;99.90;;;;;;4948066;28;20763;-90
2022/03/12 05:13:27;;;;;;;1.80;1.70;;;6.90;99.90;;;;;;4947166;28;20217;-91
2022/03/12 05:16:03;;;;;;;3.13;2.10;;;6.90;99.90;;;;;;4981742;28;20234;-89
2022/03/12 05:18:30;;;;;;;3.93;3.60;;;6.90;99.90;;;;;;4977995;28;20308;-89
2022/03/12 05:20:56;;;;;;;3.40;2.27;;;6.80;99.90;;;;;;4967875;28;20324;-90
2022/03/12 05:23:23;;;;;;;4.37;3.00;;;6.80;99.90;;;;;;4956752;28;20197;-90
2022/03/12 05:25:50;;;;;;;4.90;4.37;;;6.80;99.90;;;;;;4957072;28;20228;-89
2022/03/12 05:28:26;;;;;;;4.90;2.53;;;6.80;99.90;;;;;;4971895;28;20211;-91
2022/03/12 05:30:58;;;;;;;1.33;1.23;;;6.70;99.90;;;;;;4986161;28;20211;-91
2022/03/12 05:33:25;;;;;;;1.60;1.50;;;6.60;99.90;;;;;;4981252;28;20313;-89
2022/03/12 05:35:54;;;;;;;0.73;0.73;;;6.50;99.90;;;;;;4978532;28;20212;-90
2022/03/12 05:38:21;;;;;;;2.07;1.83;;;6.50;99.90;;;;;;4966879;28;20204;-89
2022/03/12 05:40:48;;;;;;;3.73;2.10;;;6.50;99.90;;;;;;4955069;28;20235;-89
2022/03/12 05:43:15;;;;;;;4.07;1.93;;;6.60;99.90;;;;;;4982648;28;20222;-91
2022/03/12 05:45:45;;;;;;;2.60;2.40;;;6.50;99.90;;;;;;4973820;28;20719;-90
2022/03/12 05:48:12;;;;;;;2.20;1.33;;;6.50;99.90;;;;;;4986332;28;20709;-90
2022/03/12 05:50:39;;;;;;;3.23;3.03;;;6.50;99.90;;;;;;4979127;28;20582;-90
2022/03/12 05:53:08;;;;;;;5.37;2.03;;;6.50;99.90;;;;;;4969070;28;20200;-90
2022/03/12 05:55:39;;;;;;;4.87;2.57;;;6.50;99.90;;;;;;4973210;28;20247;-90
2022/03/12 05:58:06;;;;;;;1.33;1.23;;;6.50;99.90;;;;;;4984486;28;20231;-89
2022/03/12 06:00:34;;;;;;;3.47;2.60;;;6.50;99.90;;;;;;4960688;28;20271;-89
2022/03/12 06:03:01;;;;;;;2.13;1.40;;;6.60;99.90;;;;;;4957018;28;20216;-89
2022/03/12 06:05:27;;;;;;;3.70;3.43;;;6.60;99.90;;;;;;4972420;28;20196;-90
2022/03/12 06:07:54;;;;;;;4.73;3.43;;;6.60;99.90;;;;;;4956427;28;20603;-89
2022/03/12 06:10:31;;;;;;;3.10;1.93;;;6.50;99.90;;;;;;4956403;28;20232;-89
2022/03/12 06:12:58;;;;;;;2.97;2.50;;;6.50;99.90;;;;;;4972721;28;20216;-91
2022/03/12 06:15:25;;;;;;;2.83;2.23;;;6.50;99.90;;;;;;4971989;28;20316;-90
2022/03/12 06:17:53;;;;;;;4.00;2.53;;;6.40;99.90;;;;;;4972596;28;20740;-90
2022/03/12 06:20:20;;;;;;;1.57;1.27;;;6.40;99.90;;;;;;4971976;28;20286;-90
2022/03/12 06:22:47;;;;;;;1.53;1.43;;;6.30;99.90;;;;;;5007099;28;20569;-90
2022/03/12 06:25:15;;;;;;;3.10;1.83;;;6.30;99.90;;;;;;4974485;28;20789;-89
2022/03/12 06:27:42;;;;;;;1.17;1.13;;;6.20;99.90;;;;;;4975549;28;20232;-90
2022/03/12 06:30:10;;;;;;;2.40;2.20;;;6.30;99.90;;;;;;4975957;28;20208;-90
2022/03/12 06:32:42;;;;;;;2.77;2.57;;;6.20;99.90;;;;;;4990503;28;20207;-92
2022/03/12 06:35:10;;;;;;;1.90;1.77;;;6.10;99.90;;;;;;4976221;28;20184;-91
2022/03/12 06:37:36;;;;;;;2.27;2.17;;;6.10;99.90;;;;;;4975392;28;20255;-91
2022/03/12 06:40:02;;;;;;;1.90;1.63;;;6.10;99.90;;;;;;4990871;28;20246;-91
2022/03/12 06:42:34;;;;;;;2.27;2.00;;;6.10;99.90;;;;;;4972323;28;20220;-91
2022/03/12 06:45:01;;;;;;;2.67;2.43;;;6.10;99.90;;;;;;4976286;28;20232;-88
2022/03/12 06:47:31;;;;;;;4.40;3.03;;;6.10;99.90;;;;;;4991290;28;20196;-91
2022/03/12 06:49:59;;;;;;;1.93;1.77;;;6.10;99.90;;;;;;4991416;28;20188;-87
2022/03/12 06:52:26;;;;;;;3.10;2.80;;;6.10;99.90;;;;;;4974623;28;20238;-89
2022/03/12 06:54:52;;;;;;;1.70;1.53;;;6.10;99.90;;;;;;4973885;28;20587;-91
2022/03/12 06:57:19;;;;;;;3.73;3.43;;;6.40;99.90;;;;;;4974050;28;20215;-89
2022/03/12 06:59:45;;;;;;;3.30;2.40;;;7.40;99.90;;;;;;4990628;28;20999;-89
2022/03/12 07:02:11;;;;;;;2.97;2.23;;;7.50;99.90;;;;;;4991216;28;20196;-90
2022/03/12 07:04:36;;;;;;;2.50;1.60;;;8.10;99.90;;;;;;4990061;28;20311;-91
2022/03/12 07:07:02;;;;;;;4.93;2.43;;;8.70;99.90;;;;;;4974941;28;20251;-90
2022/03/12 07:09:28;;;;;;;4.10;3.70;;;9.00;99.90;;;;;;4990832;28;20579;-90
2022/03/12 07:11:58;;;;;;;3.07;1.73;;;9.30;99.90;;;;;;4974706;28;20821;-88
2022/03/12 07:14:25;;;;;;;4.47;3.57;;;9.40;99.90;;;;;;4976070;28;20279;-94
2022/03/12 07:16:52;;;;;;;5.67;3.60;;;9.50;99.90;;;;;;4975597;28;20215;-90
2022/03/12 07:19:18;;;;;;;6.33;2.40;;;9.20;99.90;;;;;;4975207;28;20215;-90
2022/03/12 07:21:44;;;;;;;2.33;1.67;;;8.80;99.90;;;;;;4966051;28;20236;-89
2022/03/12 07:24:09;;;;;;;4.00;2.57;;;8.80;99.90;;;;;;4989505;28;20216;-90
2022/03/12 07:26:35;;;;;;;4.17;3.37;;;8.60;99.90;;;;;;4933279;28;20559;-90
2022/03/12 07:29:04;;;;;;;4.23;2.57;;;8.70;99.90;;;;;;4969746;28;20189;-90
2022/03/12 07:31:30;;;;;;;4.93;2.27;;;8.80;99.90;;;;;;4937872;28;20220;-90
2022/03/12 07:33:55;;;;;;;3.07;2.87;;;9.00;99.90;;;;;;4974145;28;20235;-90
2022/03/12 07:36:21;;;;;;;4.40;2.97;;;9.30;99.90;;;;;;4933045;28;21149;-90
2022/03/12 07:38:47;;;;;;;3.27;2.20;;;9.20;99.90;;;;;;4971987;28;20218;-89
2022/03/12 07:41:13;;;;;;;6.93;3.07;;;9.40;99.90;;;;;;4975584;28;20215;-90
2022/03/12 07:43:39;;;;;;;3.80;3.50;;;9.60;99.90;;;;;;4974353;28;20274;-91
2022/03/12 07:46:05;;;;;;;3.17;2.63;;;9.90;99.90;;;;;;4975121;28;20215;-90
2022/03/12 07:48:31;;;;;;;3.10;2.77;;;9.80;99.90;;;;;;4973942;28;20231;-94
2022/03/12 07:51:00;;;;;;;5.67;3.47;;;9.90;99.90;;;;;;4995684;28;20251;-93
2022/03/12 07:53:26;;;;;;;5.43;3.17;;;9.90;99.90;;;;;;4974325;28;20191;-92
2022/03/12 07:55:53;;;;;;;3.77;3.27;;;10.10;99.90;;;;;;4974025;28;20283;-94
2022/03/12 07:58:20;;;;;;;4.30;3.20;;;10.20;99.90;;;;;;4964062;28;20640;-92
2022/03/12 08:00:47;;;;;;;4.17;2.50;;;10.30;99.90;;;;;;4939339;28;20250;-91
2022/03/12 08:03:14;;;;;;;6.30;3.10;;;10.30;99.90;;;;;;4993801;28;20716;-92
2022/03/12 08:06:37;;;;;;;3.03;2.50;;;10.30;99.90;;;;;;4976428;28;20207;-91
2022/03/12 08:09:05;;;;;;;3.20;2.87;;;10.20;99.90;;;;;;5005173;28;20208;-95
2022/03/12 08:11:36;;;;;;;5.13;3.40;;;10.40;99.90;;;;;;4986745;28;20211;-91
2022/03/12 08:14:27;;;;;;;3.50;2.60;;;10.50;99.90;;;;;;4981667;28;20281;-94
2022/03/12 08:17:02;;;;;;;3.20;2.17;;;10.60;99.90;;;;;;5002202;28;20236;-91
2022/03/12 08:19:37;;;;;;;8.10;3.53;;;10.80;99.90;;;;;;4983697;28;20219;-90
2022/03/12 08:23:08;;;;;;;3.83;2.80;;;11.10;99.90;;;;;;4994405;28;20294;-92
2022/03/12 08:25:37;;;;;;;6.53;2.70;;;11.20;99.90;;;;;;5023922;28;20222;-90
2022/03/12 08:28:05;;;;;;;5.83;3.60;;;10.90;99.90;;;;;;5003593;28;20234;-93
2022/03/12 08:30:32;;;;;;;5.90;2.80;;;10.60;99.90;;;;;;5002044;28;20216;-90
2022/03/12 08:32:58;;;;;;;7.00;3.20;;;10.50;99.90;;;;;;5074940;23;20247;-95
2022/03/12 08:35:24;;;;;;;4.67;2.87;;;10.60;99.90;;;;;;4967404;28;20658;-94
2022/03/12 08:37:53;;;;;;;5.23;2.43;;;10.60;99.90;;;;;;4971711;28;20216;-93
2022/03/12 08:40:18;;;;;;;7.00;5.37;;;10.60;99.90;;;;;;4964486;28;20232;-86
2022/03/12 08:42:44;;;;;;;6.17;2.67;;;10.80;99.90;;;;;;4974315;28;20208;-90
2022/03/12 08:45:11;;;;;;;5.60;3.67;;;11.10;99.90;;;;;;4972317;28;20212;-92
2022/03/12 08:47:39;;;;;;;4.23;2.97;;;11.30;99.90;;;;;;4954666;28;20246;-92
2022/03/12 08:50:08;;;;;;;4.83;4.37;;;11.40;99.90;;;;;;4945437;28;20276;-90
2022/03/12 08:52:38;;;;;;;5.30;3.10;;;11.40;99.90;;;;;;4943867;28;20213;-93
2022/03/12 08:55:05;;;;;;;3.87;3.47;;;11.40;99.90;;;;;;4952408;28;20654;-93
2022/03/12 08:57:31;;;;;;;4.30;3.50;;;11.60;99.90;;;;;;4971362;28;20690;-90
2022/03/12 08:59:57;;;;;;;6.10;4.00;;;11.60;99.90;;;;;;4943146;28;20226;-91
2022/03/12 09:02:23;;;;;;;5.20;3.83;;;12.20;99.90;;;;;;4942190;28;20198;-93
2022/03/12 09:04:50;;;;;;;5.13;3.00;;;12.50;99.90;;;;;;4913039;28;20296;-90
2022/03/12 09:07:15;;;;;;;2.37;2.07;;;12.10;99.90;;;;;;4976432;28;20316;-87
2022/03/12 09:09:41;;;;;;;3.87;3.03;;;12.20;99.90;;;;;;4936444;28;20752;-92
2022/03/12 09:12:08;;;;;;;5.20;4.03;;;12.00;99.90;;;;;;4930344;28;20228;-90
2022/03/12 09:14:36;;;;;;;5.63;3.43;;;12.10;99.90;;;;;;4919792;28;20185;-93
2022/03/12 09:17:04;;;;;;;4.00;3.17;;;12.30;99.90;;;;;;4952085;29;20221;-93
2022/03/12 09:19:32;;;;;;;4.47;3.27;;;12.40;99.90;;;;;;4929565;28;20220;-92
2022/03/12 09:21:58;;;;;;;6.90;4.10;;;12.10;99.90;;;;;;4961578;28;20221;-90
2022/03/12 09:24:24;;;;;;;4.60;2.87;;;12.20;99.90;;;;;;4952096;28;20303;-93
2022/03/12 09:26:50;;;;;;;4.70;3.83;;;12.40;99.90;;;;;;4976009;28;20212;-93
2022/03/12 09:29:16;;;;;;;4.60;3.27;;;12.30;99.90;;;;;;4945624;28;20208;-88
2022/03/12 09:31:42;;;;;;;3.03;2.50;;;12.40;99.90;;;;;;4963880;28;20228;-94
2022/03/12 09:34:08;;;;;;;5.77;3.50;;;12.40;99.90;;;;;;4976986;28;20235;-90
2022/03/12 09:36:35;;;;;;;7.17;4.20;;;12.60;99.90;;;;;;4999879;28;20228;-92
2022/03/12 09:39:04;;;;;;;8.10;4.03;;;12.90;99.90;;;;;;5001842;28;20216;-88
2022/03/12 09:41:30;;;;;;;5.57;3.10;;;13.10;99.90;;;;;;4990930;28;20222;-91
2022/03/12 09:43:56;;;;;;;4.93;3.00;;;13.00;99.90;;;;;;4982940;28;20203;-90
2022/03/12 09:46:22;;;;;;;8.27;4.07;;;13.20;99.90;;;;;;4997819;28;20317;-92
2022/03/12 09:48:48;;;;;;;4.67;3.30;;;13.20;99.90;;;;;;4979250;28;20230;-90
2022/03/12 09:51:14;;;;;;;7.20;3.60;;;13.20;99.90;;;;;;4997870;28;20219;-93
2022/03/12 09:53:40;;;;;;;6.70;3.87;;;13.50;99.90;;;;;;4998208;28;20275;-92
2022/03/12 09:56:06;;;;;;;5.00;3.30;;;13.80;99.90;;;;;;4997943;28;20228;-90
2022/03/12 09:58:32;;;;;;;6.83;4.17;;;13.70;99.90;;;;;;4981371;28;20219;-90
2022/03/12 10:00:58;;;;;;;5.27;3.90;;;13.70;99.90;;;;;;4980380;28;20211;-92
2022/03/12 10:03:24;;;;;;;5.43;2.97;;;13.80;99.90;;;;;;4983939;28;20683;-91
2022/03/12 10:05:50;;;;;;;6.43;4.13;;;13.80;99.90;;;;;;4999928;28;20220;-92
2022/03/12 10:08:17;;;;;;;4.47;3.23;;;14.00;99.90;;;;;;4957897;28;21050;-93
2022/03/12 10:10:43;;;;;;;4.63;2.87;;;14.40;99.90;;;;;;4996996;28;20219;-95
2022/03/12 10:13:10;;;;;;;5.73;4.30;;;14.40;99.90;;;;;;4999836;28;20547;-93
2022/03/12 10:15:37;;;;;;;4.67;3.13;;;14.70;99.90;;;;;;4982894;28;20227;-90
2022/03/12 10:18:03;;;;;;;5.90;3.23;;;14.80;99.90;;;;;;4981473;28;20228;-92
2022/03/12 10:20:30;;;;;;;5.47;3.63;;;14.80;99.90;;;;;;4984656;28;20257;-95
2022/03/12 10:22:56;;;;;;;4.17;3.20;;;14.90;99.90;;;;;;5002306;28;20191;-91
2022/03/12 10:25:23;;;;;;;7.37;4.23;;;14.60;99.90;;;;;;4988019;28;20222;-93
2022/03/12 10:27:48;;;;;;;6.33;3.47;;;14.90;99.90;;;;;;5004756;28;20219;-93
2022/03/12 10:30:14;;;;;;;8.23;3.73;;;15.00;99.90;;;;;;4981779;28;20211;-93
2022/03/12 10:32:45;;;;;;;6.93;3.47;;;15.50;99.90;;;;;;4999933;28;20202;-92
2022/03/12 10:35:14;;;;;;;4.00;2.60;;;15.90;99.90;;;;;;4982498;28;20231;-94
2022/03/12 10:37:40;;;;;;;8.60;3.43;;;16.00;99.90;;;;;;5005698;28;20238;-92
2022/03/12 10:40:21;;;;;;;4.17;3.17;;;15.60;99.90;;;;;;4976544;28;20228;-91
2022/03/12 10:42:53;;;;;;;4.53;3.57;;;16.20;99.90;;;;;;4994105;28;20220;-93
2022/03/12 10:45:21;;;;;;;4.07;2.37;;;15.80;99.90;;;;;;4997631;28;20221;-93
2022/03/12 10:47:50;;;;;;;4.33;2.67;;;15.40;99.90;;;;;;4952592;28;20242;-93
2022/03/12 10:50:22;;;;;;;3.30;2.33;;;15.40;99.90;;;;;;4970511;28;20195;-89
2022/03/12 10:52:50;;;;;;;6.63;3.00;;;15.20;99.90;;;;;;4983348;28;20898;-93
2022/03/12 10:55:22;;;;;;;4.77;2.77;;;15.00;99.90;;;;;;4980761;28;20294;-93
2022/03/12 10:58:18;;;;;;;5.03;2.40;;;15.30;99.90;;;;;;4969811;28;20244;-94
2022/03/12 11:00:49;;;;;;;7.20;2.63;;;15.70;99.90;;;;;;4973313;28;20647;-93
2022/03/12 11:03:25;;;;;;;7.10;2.90;;;16.20;99.90;;;;;;4977834;28;20221;-90
2022/03/12 11:05:54;;;;;;;1.90;1.70;;;16.30;99.90;;;;;;4968822;28;20812;-90
2022/03/12 11:08:23;;;;;;;2.33;1.60;;;16.00;99.90;;;;;;4968786;28;20536;-91
2022/03/12 11:10:59;;;;;;;5.93;2.27;;;15.90;99.90;;;;;;4958942;28;20331;-89
2022/03/12 11:13:27;;;;;;;2.40;1.73;;;16.10;99.90;;;;;;4971963;28;20224;-89
2022/03/12 11:16:09;;;;;;;3.97;2.20;;;15.30;99.90;;;;;;4977595;28;20225;-91
2022/03/12 11:18:35;;;;;;;3.90;1.80;;;15.70;99.90;;;;;;4974635;28;20224;-89
2022/03/12 11:21:01;;;;;;;5.17;2.77;;;16.00;99.90;;;;;;4957032;28;20688;-89
2022/03/12 11:23:30;;;;;;;6.60;3.10;;;16.00;99.90;;;;;;4995563;28;20196;-90
2022/03/12 11:25:59;;;;;;;3.10;2.07;;;16.10;99.90;;;;;;4995429;28;20206;-90
2022/03/12 11:28:29;;;;;;;4.97;2.67;;;16.10;99.90;;;;;;4997627;28;20679;-92
2022/03/12 11:30:55;;;;;;;4.73;3.07;;;16.00;99.90;;;;;;5003761;28;20613;-90
2022/03/12 11:33:25;;;;;;;4.57;2.43;;;15.60;99.90;;;;;;4990283;28;20256;-92
2022/03/12 11:36:09;;;;;;;4.20;2.37;;;15.20;99.90;;;;;;4983535;28;20255;-93
2022/03/12 11:38:36;;;;;;;4.43;2.90;;;15.00;99.90;;;;;;4977803;28;20195;-92
2022/03/12 11:41:04;;;;;;;9.13;5.47;;;15.20;99.90;;;;;;4978967;28;20194;-95
2022/03/12 11:43:32;;;;;;;8.83;4.03;;;15.40;99.90;;;;;;4986771;28;20235;-86
2022/03/12 11:46:03;;;;;;;17.37;8.20;;;15.70;99.90;;;;;;4966772;28;20219;-87
2022/03/12 11:48:38;;;;;;;2.83;2.37;;;15.50;99.90;;;;;;4987577;28;20272;-87
2022/03/12 11:51:18;;;;;;;4.33;2.83;;;15.50;99.90;;;;;;4981728;28;20632;-88
2022/03/12 11:53:45;;;;;;;3.20;2.20;;;15.30;99.90;;;;;;4968174;28;20231;-89
2022/03/12 11:56:13;;;;;;;4.77;2.80;;;15.50;99.90;;;;;;4961061;28;20242;-87
2022/03/12 11:58:39;;;;;;;2.83;2.20;;;15.30;99.90;;;;;;5001428;28;20618;-85
2022/03/12 12:01:05;;;;;;;7.53;5.43;;;15.20;99.90;;;;;;4940554;28;20220;-86
2022/03/12 12:03:31;;;;;;;6.10;4.17;;;15.00;99.90;;;;;;4950218;28;20319;-87
2022/03/12 12:05:57;;;;;;;6.83;3.73;;;14.90;99.90;;;;;;4965471;28;20349;-88
2022/03/12 12:08:24;;;;;;;7.43;3.40;;;14.80;99.90;;;;;;4948876;28;20264;-85
2022/03/12 12:10:51;;;;;;;5.27;3.07;;;14.70;99.90;;;;;;4979109;28;20183;-85
2022/03/12 12:13:18;;;;;;;3.43;2.97;;;14.60;99.90;;;;;;4975090;28;20241;-85
2022/03/12 12:15:46;;;;;;;3.67;2.57;;;14.80;99.90;;;;;;4993443;28;20228;-89
2022/03/12 12:18:13;;;;;;;5.27;3.10;;;15.20;99.90;;;;;;4968875;28;20220;-86
2022/03/12 12:20:42;;;;;;;2.00;1.80;;;15.20;99.90;;;;;;4971316;28;20242;-86
2022/03/12 12:23:20;;;;;;;1.40;1.30;;;15.20;99.90;;;;;;4964536;28;20189;-85
2022/03/12 12:25:47;;;;;;;5.07;2.50;;;15.40;99.90;;;;;;4987038;28;20208;-88
2022/03/12 12:28:24;;;;;;;2.93;1.80;;;15.80;99.90;;;;;;4973178;28;20232;-90
2022/03/12 12:30:54;;;;;;;3.47;1.93;;;15.70;99.90;;;;;;4985612;28;20218;-86
2022/03/12 12:33:26;;;;;;;4.53;1.60;;;15.80;99.90;;;;;;4987734;28;20249;-86
2022/03/12 12:36:15;;;;;;;2.80;2.50;;;15.90;99.90;;;;;;4997583;28;20224;-86
2022/03/12 12:39:08;;;;;;;4.47;2.00;;;16.00;99.90;;;;;;4996684;28;20239;-85
2022/03/12 12:41:52;;;;;;;6.43;2.13;;;15.60;99.90;;;;;;4995623;28;20187;-86
2022/03/12 12:44:45;;;;;;;3.50;3.03;;;15.40;99.90;;;;;;4999589;28;20195;-89
2022/03/12 12:47:17;;;;;;;9.77;5.70;;;15.10;99.90;;;;;;4986230;28;20230;-86
2022/03/12 12:49:54;;;;;;;2.80;2.07;;;14.90;99.90;;;;;;4985935;28;20677;-86
2022/03/12 12:52:21;;;;;;;3.50;2.03;;;15.00;99.90;;;;;;4987045;28;20261;-85
2022/03/12 12:54:46;;;;;;;5.73;4.33;;;14.80;99.90;;;;;;4975645;28;20270;-86
2022/03/12 12:57:13;;;;;;;7.47;3.17;;;14.90;99.90;;;;;;4969013;28;20624;-86
2022/03/12 12:59:44;;;;;;;4.27;2.17;;;15.00;99.90;;;;;;4982463;28;20214;-88
2022/03/12 13:02:10;;;;;;;6.97;2.50;;;15.00;99.90;;;;;;4976051;28;20512;-85